Time;durP1;ratioP1;P1;durP2;ratioP2;P2;SDS_P1;SDS_P2;PMS_P1;PMS_P2;Temp;Humidity;BMP_temperature;BMP_pressure;BME280_temperature;BME280_humidity;BME280_pressure;Samples;Min_cycle;Max_cycle;Signal;HPM_P1;HPM_P2
2024/01/14 00:01:31;;;;;;;9.80;7.80;;;;;;;-1.69;69.63;96310.58;105391;1257;98807;-76
2024/01/14 00:03:59;;;;;;;11.20;8.00;;;;;;;-1.70;69.66;96306.14;105355;1257;98341;-76
2024/01/14 00:06:26;;;;;;;10.80;7.70;;;;;;;-1.69;69.85;96307.77;105364;1258;104102;-76
2024/01/14 00:08:54;;;;;;;10.80;7.50;;;;;;;-1.65;69.82;96305.04;105377;1256;100119;-76
2024/01/14 00:11:22;;;;;;;10.20;7.60;;;;;;;-1.65;69.85;96302.16;105346;1257;100838;-76
2024/01/14 00:13:49;;;;;;;11.70;8.40;;;;;;;-1.63;69.85;96301.89;105372;1257;97917;-76
2024/01/14 00:16:17;;;;;;;11.50;8.60;;;;;;;-1.61;69.82;96306.01;105272;1254;98964;-76
2024/01/14 00:18:45;;;;;;;11.60;8.30;;;;;;;-1.63;69.70;96300.58;105110;1257;104388;-76
2024/01/14 00:21:12;;;;;;;13.80;8.80;;;;;;;-1.64;69.77;96300.73;105111;1256;102191;-76
2024/01/14 00:23:40;;;;;;;11.10;8.50;;;;;;;-1.68;69.86;96297.26;105105;1251;100626;-76
2024/01/14 00:26:08;;;;;;;12.10;8.70;;;;;;;-1.73;69.88;96289.18;105308;1256;99211;-76
2024/01/14 00:28:36;;;;;;;11.80;8.40;;;;;;;-1.77;69.94;96288.04;105234;1251;98414;-76
2024/01/14 00:31:04;;;;;;;10.40;7.60;;;;;;;-1.78;70.12;96286.84;105114;1255;104122;-76
2024/01/14 00:33:31;;;;;;;11.60;8.80;;;;;;;-1.74;70.21;96284.18;105245;1251;102193;-76
2024/01/14 00:36:03;;;;;;;12.50;8.60;;;;;;;-1.73;70.25;96278.54;105344;1264;100689;-76
2024/01/14 00:38:31;;;;;;;14.80;9.40;;;;;;;-1.69;70.37;96280.27;105289;1258;99291;-76
2024/01/14 00:40:59;;;;;;;12.90;9.50;;;;;;;-1.67;70.42;96281.77;105123;1258;99581;-76
2024/01/14 00:43:28;;;;;;;12.10;8.80;;;;;;;-1.66;70.35;96278.36;105158;1257;102046;-76
2024/01/14 00:45:56;;;;;;;11.00;7.70;;;;;;;-1.71;70.26;96279.27;105180;1251;102439;-76
2024/01/14 00:48:23;;;;;;;11.00;8.40;;;;;;;-1.74;70.30;96275.36;105078;1251;100558;-76
2024/01/14 00:50:51;;;;;;;11.50;8.30;;;;;;;-1.79;70.31;96277.59;105134;1257;98001;-76
2024/01/14 00:53:19;;;;;;;12.30;8.60;;;;;;;-1.79;70.40;96277.45;105113;1257;98563;-76
2024/01/14 00:55:46;;;;;;;15.30;9.80;;;;;;;-1.78;70.52;96275.96;105106;1264;104110;-76
2024/01/14 00:58:14;;;;;;;13.10;8.50;;;;;;;-1.78;70.53;96278.74;105086;1267;101809;-76
2024/01/14 01:00:42;;;;;;;11.90;8.40;;;;;;;-1.82;70.48;96274.75;105080;1257;100260;-76
2024/01/14 01:03:10;;;;;;;9.60;7.40;;;;;;;-1.84;70.50;96266.52;105068;1251;98618;-76
2024/01/14 01:05:38;;;;;;;9.20;7.70;;;;;;;-1.85;70.58;96264.13;105095;1256;98436;-76
2024/01/14 01:08:06;;;;;;;12.90;7.80;;;;;;;-1.87;70.65;96254.63;105235;1257;102327;-76
2024/01/14 01:10:33;;;;;;;11.00;8.10;;;;;;;-1.89;70.65;96249.86;105390;1256;102121;-76
2024/01/14 01:13:02;;;;;;;10.90;8.40;;;;;;;-1.93;70.77;96245.43;105144;1251;100467;-76
2024/01/14 01:15:29;;;;;;;10.80;7.80;;;;;;;-1.95;70.95;96243.33;105153;1266;97964;-77
2024/01/14 01:17:57;;;;;;;11.70;8.50;;;;;;;-1.95;71.16;96236.84;105117;1251;99215;-76
2024/01/14 01:20:25;;;;;;;12.80;9.20;;;;;;;-1.96;71.25;96233.34;105234;1256;104097;-76
2024/01/14 01:22:53;;;;;;;11.50;8.60;;;;;;;-1.95;71.35;96228.58;105368;1251;102136;-75
2024/01/14 01:25:21;;;;;;;10.70;8.20;;;;;;;-1.95;71.40;96228.73;105180;1256;100737;-76
2024/01/14 01:27:48;;;;;;;11.30;8.40;;;;;;;-1.93;71.42;96227.80;105056;1251;97925;-76
2024/01/14 01:30:16;;;;;;;11.10;7.50;;;;;;;-1.92;71.48;96228.02;105120;1257;97807;-76
2024/01/14 01:32:44;;;;;;;12.30;7.90;;;;;;;-1.88;71.62;96222.66;105136;1261;104282;-76
2024/01/14 01:35:12;;;;;;;14.10;8.50;;;;;;;-1.87;71.69;96215.79;105303;1251;102024;-76
2024/01/14 01:37:40;;;;;;;14.30;8.80;;;;;;;-1.87;71.79;96210.89;105256;1251;98763;-76
2024/01/14 01:40:09;;;;;;;14.90;8.70;;;;;;;-1.85;71.81;96210.16;105356;1256;98833;-76
2024/01/14 01:42:37;;;;;;;12.30;7.90;;;;;;;-1.85;71.97;96215.92;105381;1251;99106;-76
2024/01/14 01:45:05;;;;;;;10.60;7.20;;;;;;;-1.87;71.79;96216.31;105196;1257;103979;-76
2024/01/14 01:47:33;;;;;;;8.90;6.60;;;;;;;-1.92;71.73;96214.38;105111;1251;101853;-76
2024/01/14 01:50:01;;;;;;;9.70;6.80;;;;;;;-1.94;71.63;96208.35;105144;1251;100496;-76
2024/01/14 01:52:29;;;;;;;11.30;7.40;;;;;;;-1.94;71.60;96205.37;105135;1256;97905;-75
2024/01/14 01:54:57;;;;;;;9.00;6.80;;;;;;;-1.95;71.81;96191.52;105103;1264;98404;-76
2024/01/14 01:57:27;;;;;;;9.00;6.50;;;;;;;-1.98;71.80;96184.77;105127;1251;102123;-76
2024/01/14 01:59:54;;;;;;;8.90;6.60;;;;;;;-1.98;71.90;96184.80;105109;1257;101886;-76
2024/01/14 02:02:23;;;;;;;9.10;6.40;;;;;;;-1.97;71.84;96177.45;105100;1251;99218;-75
2024/01/14 02:04:51;;;;;;;20.30;12.50;;;;;;;-1.95;71.85;96173.36;105161;1257;99084;-76
2024/01/14 02:07:20;;;;;;;15.10;9.00;;;;;;;-1.93;71.94;96167.27;105130;1257;97865;-76
2024/01/14 02:09:48;;;;;;;20.20;12.70;;;;;;;-1.91;71.94;96164.62;105109;1257;104353;-76
2024/01/14 02:12:16;;;;;;;24.60;13.60;;;;;;;-1.93;71.79;96161.95;105117;1255;108364;-76
2024/01/14 02:14:43;;;;;;;15.80;9.10;;;;;;;-1.91;71.89;96160.85;105131;1257;100627;-76
2024/01/14 02:17:11;;;;;;;16.10;9.00;;;;;;;-1.90;71.84;96161.85;105057;1257;97908;-76
2024/01/14 02:19:39;;;;;;;8.80;6.40;;;;;;;-1.90;71.82;96164.52;105088;1257;98728;-76
2024/01/14 02:22:19;;;;;;;8.70;5.70;;;;;;;-1.91;71.80;96165.88;105165;1253;104034;-76
2024/01/14 02:24:46;;;;;;;14.10;8.40;;;;;;;-1.90;71.81;96163.20;105179;1258;101999;-75
2024/01/14 02:27:14;;;;;;;13.10;7.30;;;;;;;-1.89;71.81;96159.23;105045;1257;100609;-76
2024/01/14 02:29:43;;;;;;;8.60;6.20;;;;;;;-1.85;71.83;96159.91;105115;1258;97876;-76
2024/01/14 02:32:11;;;;;;;10.70;6.40;;;;;;;-1.85;71.77;96154.13;105119;1257;98324;-76
2024/01/14 02:34:38;;;;;;;11.50;7.80;;;;;;;-1.88;71.67;96149.09;105151;1253;104127;-76
2024/01/14 02:37:06;;;;;;;10.70;6.60;;;;;;;-1.88;71.78;96152.83;105121;1270;101812;-76
2024/01/14 02:39:34;;;;;;;7.90;6.60;;;;;;;-1.88;71.75;96146.44;105068;1251;100572;-76
2024/01/14 02:42:02;;;;;;;6.80;5.60;;;;;;;-1.88;71.65;96148.08;105111;1257;98795;-76
2024/01/14 02:44:29;;;;;;;7.80;5.80;;;;;;;-1.90;71.63;96146.15;105187;1257;99582;-76
2024/01/14 02:46:57;;;;;;;7.60;5.60;;;;;;;-1.88;71.65;96139.64;105126;1258;104248;-76
2024/01/14 02:49:25;;;;;;;7.40;5.10;;;;;;;-1.83;71.74;96137.14;105064;1256;101753;-76
2024/01/14 02:51:53;;;;;;;6.30;4.80;;;;;;;-1.77;71.68;96137.95;105115;1264;100754;-76
2024/01/14 02:54:20;;;;;;;6.80;5.60;;;;;;;-1.75;71.57;96130.88;105042;1251;97884;-76
2024/01/14 02:56:48;;;;;;;7.90;5.70;;;;;;;-1.73;71.50;96126.91;105088;1256;98211;-76
2024/01/14 02:59:16;;;;;;;8.30;5.50;;;;;;;-1.71;71.45;96127.55;105081;1264;104227;-76
2024/01/14 03:01:46;;;;;;;7.30;5.50;;;;;;;-1.69;71.62;96126.48;105139;1257;102126;-76
2024/01/14 03:04:13;;;;;;;6.90;5.90;;;;;;;-1.65;71.66;96126.40;105102;1256;100689;-76
2024/01/14 03:06:41;;;;;;;7.20;6.00;;;;;;;-1.65;71.66;96118.40;105082;1257;97931;-76
2024/01/14 03:09:09;;;;;;;7.00;5.80;;;;;;;-1.65;71.60;96118.23;105126;1257;99582;-76
2024/01/14 03:11:37;;;;;;;7.00;5.80;;;;;;;-1.66;71.40;96117.66;105075;1257;104305;-76
2024/01/14 03:14:05;;;;;;;11.40;6.70;;;;;;;-1.69;71.43;96116.92;105133;1251;102130;-76
2024/01/14 03:16:32;;;;;;;8.90;6.30;;;;;;;-1.70;71.44;96113.70;105115;1264;100621;-76
2024/01/14 03:19:00;;;;;;;9.10;6.20;;;;;;;-1.70;71.46;96114.98;105088;1258;97902;-76
2024/01/14 03:21:28;;;;;;;10.30;6.40;;;;;;;-1.69;71.39;96109.54;105277;1251;99858;-76
2024/01/14 03:23:55;;;;;;;8.40;5.70;;;;;;;-1.69;71.24;96108.17;105058;1251;104289;-76
2024/01/14 03:26:23;;;;;;;7.00;4.70;;;;;;;-1.69;71.36;96106.17;105201;1256;102407;-76
2024/01/14 03:28:51;;;;;;;6.50;5.10;;;;;;;-1.66;71.27;96108.17;105047;1257;100735;-76
2024/01/14 03:31:19;;;;;;;6.70;5.00;;;;;;;-1.62;71.42;96105.70;104983;1253;97971;-76
2024/01/14 03:33:46;;;;;;;6.80;5.00;;;;;;;-1.59;71.37;96102.55;105051;1253;98458;-76
2024/01/14 03:36:15;;;;;;;6.90;5.70;;;;;;;-1.54;71.37;96103.46;104992;1256;104093;-76
2024/01/14 03:38:43;;;;;;;7.60;5.80;;;;;;;-1.51;71.26;96100.12;104976;1254;101857;-76
2024/01/14 03:41:12;;;;;;;7.40;6.10;;;;;;;-1.49;71.38;96096.15;104929;1276;100709;-76
2024/01/14 03:43:40;;;;;;;8.30;5.50;;;;;;;-1.49;71.24;96099.03;105001;1264;98917;-77
2024/01/14 03:46:09;;;;;;;8.20;5.80;;;;;;;-1.55;71.31;96098.60;105099;1257;99201;-75
2024/01/14 03:48:37;;;;;;;8.80;6.50;;;;;;;-1.58;71.46;96099.98;105267;1257;104077;-78
2024/01/14 03:51:05;;;;;;;6.80;5.50;;;;;;;-1.58;71.58;96095.25;105128;1257;102170;-76
2024/01/14 03:53:33;;;;;;;7.60;5.80;;;;;;;-1.62;71.58;96089.55;105209;1253;100603;-76
2024/01/14 03:56:01;;;;;;;8.10;5.80;;;;;;;-1.67;71.67;96093.06;105068;1257;98801;-75
2024/01/14 03:58:28;;;;;;;8.00;5.80;;;;;;;-1.72;71.70;96086.80;104970;1253;98496;-78
2024/01/14 04:00:56;;;;;;;8.10;5.80;;;;;;;-1.77;71.84;96081.34;105066;1256;104149;-76
2024/01/14 04:03:24;;;;;;;9.90;7.40;;;;;;;-1.82;72.09;96078.67;104944;1256;102120;-76
2024/01/14 04:05:51;;;;;;;11.80;7.20;;;;;;;-1.87;72.22;96073.48;105262;1267;100577;-78
2024/01/14 04:08:19;;;;;;;11.30;6.40;;;;;;;-1.85;72.44;96066.80;105285;1256;97969;-76
2024/01/14 04:10:48;;;;;;;9.20;6.50;;;;;;;-1.87;72.60;96062.74;105130;1256;98459;-77
2024/01/14 04:13:16;;;;;;;11.90;7.80;;;;;;;-1.92;72.65;96060.45;105148;1254;102425;-76
2024/01/14 04:15:43;;;;;;;10.80;7.70;;;;;;;-1.95;72.72;96056.30;105159;1256;102112;-76
2024/01/14 04:18:11;;;;;;;10.50;7.60;;;;;;;-1.94;72.71;96055.69;104920;1257;100907;-76
2024/01/14 04:20:39;;;;;;;9.50;6.60;;;;;;;-1.94;72.73;96060.08;104984;1258;97931;-76
2024/01/14 04:23:06;;;;;;;16.90;8.40;;;;;;;-1.97;72.80;96049.77;105089;1253;98444;-76
2024/01/14 04:25:34;;;;;;;10.70;7.60;;;;;;;-1.97;72.78;96040.11;105330;1259;102688;-75
2024/01/14 04:28:02;;;;;;;13.10;8.40;;;;;;;-1.96;72.88;96036.11;105100;1260;101859;-77
2024/01/14 04:30:30;;;;;;;11.70;8.40;;;;;;;-1.95;72.81;96032.45;105405;1257;100611;-76
2024/01/14 04:32:58;;;;;;;11.00;8.20;;;;;;;-1.92;72.82;96031.47;105091;1256;97835;-78
2024/01/14 04:35:26;;;;;;;12.00;8.40;;;;;;;-1.93;72.77;96030.84;105212;1256;98408;-78
2024/01/14 04:37:54;;;;;;;10.20;8.20;;;;;;;-1.94;72.88;96031.44;105150;1256;104007;-76
2024/01/14 04:40:22;;;;;;;13.60;8.60;;;;;;;-1.88;73.16;96024.67;105108;1251;101702;-78
2024/01/14 04:42:49;;;;;;;10.80;8.50;;;;;;;-1.84;73.06;96028.95;105076;1256;98690;-75
2024/01/14 04:45:17;;;;;;;12.30;9.30;;;;;;;-1.80;73.09;96027.30;105074;1257;98129;-76
2024/01/14 04:47:45;;;;;;;14.00;9.20;;;;;;;-1.75;73.21;96034.05;105133;1257;98398;-75
2024/01/14 04:50:13;;;;;;;14.30;9.20;;;;;;;-1.73;73.12;96035.87;105146;1251;104174;-77
2024/01/14 04:52:40;;;;;;;17.30;9.90;;;;;;;-1.74;73.10;96039.67;105164;1257;102710;-77
2024/01/14 04:55:08;;;;;;;15.30;9.50;;;;;;;-1.73;73.18;96037.86;105115;1251;100630;-76
2024/01/14 04:57:36;;;;;;;14.20;10.30;;;;;;;-1.71;73.10;96038.52;105105;1257;97915;-77
2024/01/14 05:00:05;;;;;;;15.80;10.40;;;;;;;-1.70;73.11;96043.11;105121;1257;98411;-75
2024/01/14 05:02:32;;;;;;;19.30;11.90;;;;;;;-1.66;73.42;96038.98;105217;1251;103795;-78
2024/01/14 05:05:00;;;;;;;21.90;11.70;;;;;;;-1.63;73.25;96034.55;105407;1256;101819;-78
2024/01/14 05:07:28;;;;;;;16.20;10.10;;;;;;;-1.66;72.85;96026.29;105267;1274;100728;-76
2024/01/14 05:09:56;;;;;;;17.10;11.20;;;;;;;-1.69;72.78;96014.99;105153;1256;97901;-77
2024/01/14 05:12:24;;;;;;;15.20;10.10;;;;;;;-1.71;72.77;96012.92;105115;1257;98335;-77
2024/01/14 05:14:51;;;;;;;12.70;9.90;;;;;;;-1.72;72.72;96017.75;105068;1265;103973;-79
2024/01/14 05:17:19;;;;;;;14.80;9.50;;;;;;;-1.71;72.81;96023.17;105119;1274;102052;-78
2024/01/14 05:19:47;;;;;;;14.80;9.50;;;;;;;-1.70;72.80;96030.48;105125;1253;98647;-77
2024/01/14 05:22:15;;;;;;;15.40;11.00;;;;;;;-1.68;72.84;96032.35;105087;1257;99158;-77
2024/01/14 05:24:43;;;;;;;12.70;9.70;;;;;;;-1.63;72.82;96033.03;105135;1256;98513;-79
2024/01/14 05:27:15;;;;;;;15.50;10.30;;;;;;;-1.62;72.95;96036.37;105194;1257;104175;-77
2024/01/14 05:29:45;;;;;;;19.00;9.80;;;;;;;-1.65;73.08;96034.45;105122;1255;102177;-75
2024/01/14 05:32:15;;;;;;;18.70;11.50;;;;;;;-1.70;73.17;96029.95;105106;1256;100378;-78
2024/01/14 05:34:44;;;;;;;15.70;10.40;;;;;;;-1.75;73.25;96030.31;105086;1251;97990;-76
2024/01/14 05:37:13;;;;;;;13.90;10.10;;;;;;;-1.77;73.39;96025.02;105203;1254;99122;-79
2024/01/14 05:39:40;;;;;;;17.90;10.40;;;;;;;-1.76;73.57;96022.67;105121;1256;104488;-76
2024/01/14 05:42:08;;;;;;;18.10;11.20;;;;;;;-1.80;73.61;96018.95;105394;1251;102238;-78
2024/01/14 05:44:36;;;;;;;23.90;13.30;;;;;;;-1.83;73.80;96020.32;105386;1257;100634;-76
2024/01/14 05:47:04;;;;;;;17.20;11.40;;;;;;;-1.82;74.23;96022.00;105104;1256;98021;-77
2024/01/14 05:49:32;;;;;;;23.20;13.40;;;;;;;-1.82;74.41;96018.14;105155;1251;98382;-77
2024/01/14 05:52:00;;;;;;;35.60;17.20;;;;;;;-1.79;74.50;96020.13;105221;1256;102567;-75
2024/01/14 05:54:28;;;;;;;30.60;16.00;;;;;;;-1.75;74.63;96021.48;105126;1256;102111;-76
2024/01/14 05:56:57;;;;;;;24.00;14.90;;;;;;;-1.72;74.64;96023.44;105235;1251;100552;-75
2024/01/14 05:59:25;;;;;;;21.90;13.50;;;;;;;-1.72;74.78;96022.91;105233;1266;99241;-78
2024/01/14 06:01:53;;;;;;;23.70;14.60;;;;;;;-1.79;75.10;96019.80;105175;1251;98533;-78
2024/01/14 06:04:20;;;;;;;21.90;13.90;;;;;;;-1.81;75.13;96023.34;105395;1255;104019;-75
2024/01/14 06:06:49;;;;;;;18.80;13.20;;;;;;;-1.79;75.28;96022.31;105379;1255;109265;-79
2024/01/14 06:09:17;;;;;;;20.50;12.50;;;;;;;-1.79;75.36;96019.97;105304;1256;100502;-78
2024/01/14 06:11:45;;;;;;;16.50;11.40;;;;;;;-1.78;75.57;96020.72;105097;1251;99234;-78
2024/01/14 06:14:13;;;;;;;14.90;10.90;;;;;;;-1.75;75.61;96022.58;105119;1251;98442;-76
2024/01/14 06:16:40;;;;;;;13.90;10.60;;;;;;;-1.71;75.80;96021.18;105107;1258;102183;-79
2024/01/14 06:19:08;;;;;;;13.20;9.90;;;;;;;-1.65;75.78;96015.23;105158;1251;100656;-78
2024/01/14 06:21:43;;;;;;;15.10;10.40;;;;;;;-1.65;75.85;96013.78;105007;1256;100619;-79
2024/01/14 06:24:14;;;;;;;16.20;10.70;;;;;;;-1.64;75.84;96019.34;105162;1266;97838;-77
2024/01/14 06:26:41;;;;;;;16.00;11.10;;;;;;;-1.62;75.86;96022.88;105310;1254;98351;-78
2024/01/14 06:29:09;;;;;;;15.90;11.40;;;;;;;-1.58;75.77;96031.17;105129;1254;104286;-78
2024/01/14 06:31:37;;;;;;;15.00;10.20;;;;;;;-1.56;75.94;96030.63;105103;1256;100261;-77
2024/01/14 06:34:07;;;;;;;19.40;11.60;;;;;;;-1.58;75.95;96034.02;105266;1257;100122;-75
2024/01/14 06:36:35;;;;;;;15.70;10.20;;;;;;;-1.56;75.80;96031.35;105255;1257;99445;-77
2024/01/14 06:39:02;;;;;;;16.30;11.10;;;;;;;-1.58;75.86;96028.27;105201;1257;99706;-77
2024/01/14 06:41:30;;;;;;;16.00;11.20;;;;;;;-1.60;75.87;96025.79;105112;1257;104206;-77
2024/01/14 06:43:58;;;;;;;15.50;10.80;;;;;;;-1.61;75.89;96035.73;105273;1251;159364;-78
2024/01/14 06:46:25;;;;;;;16.20;11.70;;;;;;;-1.62;75.80;96034.48;105329;1256;100735;-79
2024/01/14 06:48:53;;;;;;;13.30;8.90;;;;;;;-1.64;75.82;96033.63;105135;1251;97929;-79
2024/01/14 06:51:21;;;;;;;13.30;9.20;;;;;;;-1.67;75.82;96029.73;105124;1256;98293;-75
2024/01/14 06:53:48;;;;;;;13.80;8.90;;;;;;;-1.68;75.72;96026.15;105145;1251;104276;-76
2024/01/14 06:56:18;;;;;;;11.40;7.90;;;;;;;-1.65;75.75;96028.13;105162;1254;101902;-76
2024/01/14 06:58:46;;;;;;;10.10;7.00;;;;;;;-1.66;75.73;96028.57;105069;1252;100974;-76
2024/01/14 07:01:14;;;;;;;11.30;7.00;;;;;;;-1.67;75.52;96026.39;105285;1256;97912;-78
2024/01/14 07:03:42;;;;;;;9.80;6.70;;;;;;;-1.69;75.44;96025.17;105114;1256;98345;-76
2024/01/14 07:06:09;;;;;;;11.80;7.50;;;;;;;-1.72;75.43;96017.61;105161;1257;104541;-79
2024/01/14 07:08:37;;;;;;;10.80;7.40;;;;;;;-1.74;75.48;96015.50;105077;1257;108319;-75
2024/01/14 07:11:05;;;;;;;13.00;8.00;;;;;;;-1.74;75.53;96019.77;105223;1264;101095;-78
2024/01/14 07:13:33;;;;;;;13.80;8.60;;;;;;;-1.71;75.60;96018.41;105127;1257;97978;-75
2024/01/14 07:16:00;;;;;;;12.30;7.90;;;;;;;-1.70;75.54;96019.99;105117;1256;99322;-76
2024/01/14 07:18:28;;;;;;;15.70;9.90;;;;;;;-1.68;75.54;96018.09;105223;1266;104107;-76
2024/01/14 07:20:56;;;;;;;13.80;8.60;;;;;;;-1.70;75.47;96013.85;105136;1255;100174;-79
2024/01/14 07:23:24;;;;;;;13.00;8.70;;;;;;;-1.68;75.52;96018.35;105094;1257;98463;-76
2024/01/14 07:25:51;;;;;;;14.40;7.60;;;;;;;-1.66;75.47;96016.52;105272;1255;97894;-77
2024/01/14 07:28:19;;;;;;;12.50;7.60;;;;;;;-1.65;75.38;96014.34;105202;1251;97899;-79
2024/01/14 07:30:47;;;;;;;11.60;7.40;;;;;;;-1.66;75.13;96003.56;105096;1266;104331;-77
2024/01/14 07:33:15;;;;;;;13.90;8.40;;;;;;;-1.65;75.20;96000.06;105102;1257;100269;-77
2024/01/14 07:35:42;;;;;;;10.40;6.30;;;;;;;-1.61;75.08;96000.98;105058;1251;100556;-77
2024/01/14 07:38:10;;;;;;;10.80;6.80;;;;;;;-1.54;75.11;95998.50;105349;1265;97812;-76
2024/01/14 07:40:38;;;;;;;10.10;7.00;;;;;;;-1.50;74.99;95996.90;105372;1257;98501;-78
2024/01/14 07:43:05;;;;;;;12.30;7.30;;;;;;;-1.42;75.08;96000.11;105386;1256;104388;-78
2024/01/14 07:45:33;;;;;;;13.30;8.40;;;;;;;-1.33;74.84;96000.52;105292;1257;101253;-76
2024/01/14 07:48:02;;;;;;;12.30;8.00;;;;;;;-1.33;74.68;95999.80;105197;1257;100735;-77
2024/01/14 07:50:30;;;;;;;11.80;7.70;;;;;;;-1.35;74.60;95993.48;105317;1257;99175;-78
2024/01/14 07:52:57;;;;;;;11.40;8.00;;;;;;;-1.35;74.80;95998.48;105191;1256;98420;-76
2024/01/14 07:55:25;;;;;;;15.40;9.30;;;;;;;-1.33;74.87;96002.34;105214;1256;104320;-78
2024/01/14 07:57:53;;;;;;;15.90;9.10;;;;;;;-1.31;75.07;96001.91;105296;1257;102287;-76
2024/01/14 08:00:20;;;;;;;14.50;9.30;;;;;;;-1.32;74.95;96003.90;105281;1257;99303;-78
2024/01/14 08:02:48;;;;;;;15.90;9.40;;;;;;;-1.32;75.21;95999.46;105206;1256;97924;-78
2024/01/14 08:05:16;;;;;;;12.30;8.10;;;;;;;-1.35;75.33;95992.59;105172;1256;98418;-77
2024/01/14 08:07:43;;;;;;;12.40;8.00;;;;;;;-1.35;75.32;95992.98;105251;1255;104221;-79
2024/01/14 08:10:11;;;;;;;10.00;6.60;;;;;;;-1.34;75.25;95991.63;105347;1251;102296;-76
2024/01/14 08:12:39;;;;;;;13.10;8.00;;;;;;;-1.30;75.32;95992.05;105335;1267;98859;-78
2024/01/14 08:15:07;;;;;;;14.20;8.70;;;;;;;-1.27;75.40;95998.01;105141;1256;97891;-78
2024/01/14 08:17:35;;;;;;;12.90;7.90;;;;;;;-1.22;75.48;95999.27;105251;1266;98493;-75
2024/01/14 08:20:05;;;;;;;17.60;11.40;;;;;;;-1.14;75.50;96001.55;105307;1254;104335;-78
2024/01/14 08:22:34;;;;;;;17.30;10.10;;;;;;;-1.11;75.38;96001.88;105244;1257;102187;-77
2024/01/14 08:25:01;;;;;;;20.10;12.80;;;;;;;-1.08;75.33;96000.98;105351;1258;100498;-78
2024/01/14 08:27:30;;;;;;;17.80;10.20;;;;;;;-1.08;75.20;95990.03;105135;1256;99196;-78
2024/01/14 08:29:57;;;;;;;20.00;11.50;;;;;;;-1.10;75.17;95986.70;105341;1251;98350;-78
2024/01/14 08:32:25;;;;;;;22.60;12.50;;;;;;;-1.07;75.15;95987.94;105325;1251;104257;-76
2024/01/14 08:34:53;;;;;;;26.80;13.30;;;;;;;-1.05;75.15;95993.72;105334;1251;102049;-77
2024/01/14 08:37:20;;;;;;;26.10;12.50;;;;;;;-1.05;75.11;95997.23;105398;1257;100955;-76
2024/01/14 08:39:50;;;;;;;35.20;14.90;;;;;;;-1.07;74.94;96006.61;105142;1257;97889;-77
2024/01/14 08:42:18;;;;;;;42.50;16.30;;;;;;;-1.11;74.78;96004.02;105140;1257;98519;-79
2024/01/14 08:44:47;;;;;;;38.10;15.50;;;;;;;-1.13;74.48;95997.67;105099;1261;103663;-76
2024/01/14 08:47:15;;;;;;;42.10;17.70;;;;;;;-1.15;74.40;95987.89;105156;1251;100364;-77
2024/01/14 08:49:42;;;;;;;18.40;8.90;;;;;;;-1.12;74.31;95990.02;105146;1255;101251;-77
2024/01/14 08:52:11;;;;;;;23.80;11.50;;;;;;;-1.08;74.22;95990.95;105197;1257;97921;-78
2024/01/14 08:54:39;;;;;;;22.70;11.50;;;;;;;-1.01;74.46;95987.52;105306;1266;98276;-77
2024/01/14 08:57:07;;;;;;;27.10;13.10;;;;;;;-0.96;74.05;95984.66;105100;1257;104298;-76
2024/01/14 08:59:35;;;;;;;27.00;12.90;;;;;;;-0.96;73.90;95987.30;105076;1264;102175;-77
2024/01/14 09:02:03;;;;;;;28.60;12.50;;;;;;;-0.94;73.88;95989.54;105097;1251;100528;-76
2024/01/14 09:04:30;;;;;;;20.30;9.90;;;;;;;-0.92;73.81;95985.04;105117;1257;99194;-77
2024/01/14 09:06:58;;;;;;;24.40;10.50;;;;;;;-0.91;73.70;95987.45;105111;1257;98673;-77
2024/01/14 09:09:26;;;;;;;19.20;9.60;;;;;;;-0.90;73.80;95988.98;105111;1257;104383;-76
2024/01/14 09:11:53;;;;;;;27.40;11.60;;;;;;;-0.92;73.75;95987.15;105090;1254;102108;-76
2024/01/14 09:14:21;;;;;;;22.80;11.80;;;;;;;-0.92;73.64;95986.70;105128;1254;99854;-77
2024/01/14 09:16:49;;;;;;;76.60;27.80;;;;;;;-0.91;73.77;95984.27;105067;1274;97868;-76
2024/01/14 09:19:17;;;;;;;85.30;32.70;;;;;;;-0.88;73.91;95982.91;105152;1256;98376;-76
2024/01/14 09:21:44;;;;;;;32.80;14.80;;;;;;;-0.86;74.02;95983.92;105162;1257;104352;-77
2024/01/14 09:24:12;;;;;;;20.40;11.30;;;;;;;-0.82;73.99;95983.42;105147;1255;102008;-76
2024/01/14 09:26:39;;;;;;;21.70;11.40;;;;;;;-0.79;74.02;95980.88;105027;1256;101385;-76
2024/01/14 09:29:07;;;;;;;23.10;11.20;;;;;;;-0.78;73.89;95983.27;105127;1251;97989;-76
2024/01/14 09:31:35;;;;;;;19.60;10.90;;;;;;;-0.81;73.39;95976.59;105317;1251;99084;-77
2024/01/14 09:34:03;;;;;;;15.50;10.30;;;;;;;-0.87;73.28;95971.77;105152;1257;111078;-76
2024/01/14 09:36:32;;;;;;;17.90;10.70;;;;;;;-0.90;73.40;95979.89;105118;1255;103872;-76
2024/01/14 09:39:00;;;;;;;21.90;11.40;;;;;;;-0.93;73.74;95979.67;105157;1272;99103;-77
2024/01/14 09:41:44;;;;;;;24.30;12.50;;;;;;;-0.96;73.91;95977.93;105121;1265;97899;-77
2024/01/14 09:44:15;;;;;;;20.60;10.30;;;;;;;-0.96;73.96;95969.10;105186;1257;99123;-77
2024/01/14 09:46:45;;;;;;;9.00;5.80;;;;;;;-0.97;73.99;95970.88;105205;1257;104348;-76
